createdAt,value
2017-11-22T00:02:03.265Z,81.4
2017-11-22T00:07:03.699Z,81.4
2017-11-22T00:12:03.817Z,81.5
2017-11-22T00:17:03.863Z,81.6
2017-11-22T00:22:03.065Z,81.4
2017-11-22T00:27:03.102Z,81.3
2017-11-22T00:32:03.098Z,81.3
2017-11-22T00:37:03.400Z,81.2
2017-11-22T00:42:03.454Z,81.0
2017-11-22T00:47:03.547Z,81.2
2017-11-22T00:52:03.817Z,81.2
2017-11-22T00:57:03.122Z,81.1
2017-11-22T01:02:03.301Z,81.1
2017-11-22T01:07:03.160Z,81.2
2017-11-22T01:12:03.590Z,81.1
2017-11-22T01:17:03.515Z,81.0
2017-11-22T01:22:03.040Z,80.6
2017-11-22T01:27:03.209Z,80.7
2017-11-22T01:32:04.023Z,80.7
2017-11-22T01:37:03.405Z,80.7
2017-11-22T01:42:03.634Z,80.9
2017-11-22T01:47:03.922Z,80.9
2017-11-22T01:52:03.466Z,80.9
2017-11-22T01:57:03.716Z,80.8
2017-11-22T02:02:03.888Z,81.7
2017-11-22T02:07:03.720Z,80.9
2017-11-22T02:12:03.903Z,80.8
2017-11-22T02:17:03.368Z,80.7
2017-11-22T02:22:03.433Z,80.7
2017-11-22T02:27:03.231Z,80.8
2017-11-22T02:32:03.192Z,80.9
2017-11-22T02:37:03.137Z,81.0
2017-11-22T02:42:03.878Z,81.0
2017-11-22T02:47:03.986Z,81.1
2017-11-22T02:52:03.657Z,81.1
2017-11-22T02:57:03.510Z,80.8
2017-11-22T03:02:03.568Z,80.9
2017-11-22T03:07:03.678Z,81.2
2017-11-22T03:12:03.756Z,81.0
2017-11-22T03:17:03.937Z,81.0
2017-11-22T03:22:03.400Z,80.9
2017-11-22T03:27:03.571Z,81.0
2017-11-22T03:32:03.584Z,80.8
2017-11-22T03:37:03.239Z,80.8
2017-11-22T03:42:03.442Z,80.7
2017-11-22T03:47:03.781Z,80.5
2017-11-22T03:52:03.101Z,80.4
2017-11-22T03:57:03.456Z,80.5
2017-11-22T04:02:03.782Z,80.4
2017-11-22T04:07:03.332Z,80.2
2017-11-22T04:12:03.629Z,80.2
2017-11-22T04:17:03.976Z,80.1
2017-11-22T04:22:03.333Z,80.1
2017-11-22T04:27:03.543Z,80.3
2017-11-22T04:32:03.872Z,80.4
2017-11-22T04:37:03.202Z,80.2
2017-11-22T04:42:03.383Z,80.3
2017-11-22T04:47:03.747Z,80.2
2017-11-22T04:52:03.028Z,80.2
2017-11-22T04:57:03.350Z,80.1
2017-11-22T05:02:03.572Z,80.4
2017-11-22T05:07:03.974Z,80.3
2017-11-22T05:12:03.467Z,80.1
2017-11-22T05:17:03.821Z,80.2
2017-11-22T05:22:03.146Z,80.2
2017-11-22T05:27:03.451Z,80.5
2017-11-22T05:32:03.751Z,80.5
2017-11-22T05:37:03.086Z,80.1
2017-11-22T05:42:03.402Z,80.0
2017-11-22T05:47:03.604Z,80.0
2017-11-22T05:52:03.859Z,79.9
2017-11-22T05:57:03.142Z,79.9
2017-11-22T06:02:05.115Z,79.8
2017-11-22T06:07:03.064Z,79.9
2017-11-22T06:12:03.624Z,80.0
2017-11-22T06:17:26.413Z,80.0
2017-11-22T06:22:03.607Z,79.8
2017-11-22T06:27:03.095Z,79.5
2017-11-22T06:32:23.873Z,79.6
2017-11-22T06:37:03.156Z,79.7
2017-11-22T06:42:03.760Z,79.6
2017-11-22T06:47:21.952Z,79.4
2017-11-22T06:52:03.697Z,79.6
2017-11-22T06:57:03.064Z,79.6
2017-11-22T07:02:24.499Z,79.3
2017-11-22T07:07:03.254Z,79.3
2017-11-22T07:12:03.785Z,79.2
2017-11-22T07:17:23.849Z,79.2
2017-11-22T07:22:03.707Z,79.1
2017-11-22T07:27:03.064Z,79.1
2017-11-22T07:32:24.013Z,78.7
2017-11-22T07:37:03.924Z,78.8
2017-11-22T07:42:03.305Z,78.6
2017-11-22T07:47:25.368Z,78.1
2017-11-22T07:52:03.336Z,77.9
2017-11-22T07:57:03.681Z,77.4
2017-11-22T08:02:26.391Z,77.4
2017-11-22T08:07:03.683Z,77.5
2017-11-22T08:12:03.318Z,77.3
2017-11-22T08:17:24.522Z,77.2
2017-11-22T08:22:03.347Z,77.0
2017-11-22T08:27:03.783Z,77.1
2017-11-22T08:32:23.522Z,76.8
2017-11-22T08:37:03.647Z,76.9
2017-11-22T08:42:03.058Z,76.8
2017-11-22T08:47:24.165Z,77.1
2017-11-22T08:52:02.967Z,77.1
2017-11-22T08:57:03.778Z,77.2
2017-11-22T09:02:19.278Z,77.4
2017-11-22T09:07:03.567Z,77.8
2017-11-22T09:12:03.341Z,77.6
2017-11-22T09:17:28.921Z,77.7
2017-11-22T09:22:03.363Z,77.8
2017-11-22T09:27:03.769Z,77.4
2017-11-22T09:32:27.682Z,77.8
2017-11-22T09:37:03.861Z,77.6
2017-11-22T09:42:03.370Z,77.7
2017-11-22T09:47:29.144Z,77.8
2017-11-22T09:52:03.269Z,77.6
2017-11-22T09:57:03.695Z,77.9
2017-11-22T10:02:27.758Z,78.6
2017-11-22T10:07:03.319Z,78.6
2017-11-22T10:12:03.729Z,79.0
2017-11-22T10:17:28.880Z,78.7
2017-11-22T10:22:04.002Z,78.7
2017-11-22T10:27:03.431Z,78.6
2017-11-22T10:32:17.069Z,78.7
2017-11-22T10:37:03.207Z,79.1
2017-11-22T10:42:03.688Z,79.1
2017-11-22T10:47:28.363Z,79.6
2017-11-22T10:52:03.695Z,79.9
2017-11-22T10:57:03.147Z,80.0
2017-11-22T11:02:28.513Z,80.3
2017-11-22T11:07:03.734Z,80.3
2017-11-22T11:12:03.235Z,80.5
2017-11-22T11:17:28.587Z,80.4
2017-11-22T11:22:03.892Z,80.6
2017-11-22T11:27:03.415Z,80.4
2017-11-22T11:32:31.595Z,80.7
2017-11-22T11:37:03.341Z,80.6
2017-11-22T11:42:03.726Z,81.3
2017-11-22T11:47:32.327Z,81.3
2017-11-22T11:52:03.788Z,81.6
2017-11-22T11:57:03.309Z,81.6
2017-11-22T12:02:28.073Z,81.6
2017-11-22T12:07:03.500Z,82.3
2017-11-22T12:12:03.872Z,82.6
2017-11-22T12:17:24.982Z,82.7
2017-11-22T12:22:03.185Z,83.0
2017-11-22T12:27:03.675Z,83.0
2017-11-22T12:32:27.712Z,83.2
2017-11-22T12:37:03.531Z,83.1
2017-11-22T12:42:03.836Z,82.8
2017-11-22T12:47:23.799Z,83.5
2017-11-22T12:52:03.646Z,83.5
2017-11-22T12:57:03.157Z,83.4
2017-11-22T13:02:27.898Z,83.7
2017-11-22T13:07:03.259Z,83.7
2017-11-22T13:12:03.790Z,83.6
2017-11-22T13:17:24.088Z,83.4
2017-11-22T13:22:03.749Z,83.3
2017-11-22T13:27:03.288Z,83.2
2017-11-22T13:32:28.226Z,82.4
2017-11-22T13:37:03.800Z,81.7
2017-11-22T13:42:03.152Z,80.8
2017-11-22T13:47:28.522Z,79.5
2017-11-22T13:52:03.146Z,79.5
2017-11-22T13:57:03.610Z,78.3
2017-11-22T14:02:27.773Z,77.2
2017-11-22T14:07:03.111Z,76.2
2017-11-22T14:12:03.721Z,73.5
2017-11-22T14:17:28.194Z,73.5
2017-11-22T14:22:03.836Z,72.5
2017-11-22T14:27:03.330Z,71.4
2017-11-22T14:32:27.780Z,71.3
2017-11-22T14:37:03.457Z,70.3
2017-11-22T14:42:03.774Z,70.3
2017-11-22T14:47:28.217Z,68.8
2017-11-22T14:52:03.835Z,69.8
2017-11-22T14:57:03.285Z,69.9
2017-11-22T15:02:23.834Z,70.8
2017-11-22T15:07:03.715Z,70.8
2017-11-22T15:12:03.281Z,70.7
2017-11-22T15:17:29.184Z,72.4
2017-11-22T15:22:03.338Z,72.4
2017-11-22T15:27:03.713Z,76.1
2017-11-22T15:32:24.141Z,80.0
2017-11-22T15:37:03.638Z,79.9
2017-11-22T15:42:03.050Z,82.7
2017-11-22T15:47:21.373Z,84.7
2017-11-22T15:52:03.007Z,84.7
2017-11-22T15:57:03.828Z,85.0
2017-11-22T16:02:22.969Z,85.1
2017-11-22T16:07:03.674Z,85.0
2017-11-22T16:12:03.320Z,85.0
2017-11-22T16:17:16.637Z,84.6
2017-11-22T16:22:03.150Z,84.4
2017-11-22T16:27:03.388Z,84.0
2017-11-22T16:32:07.572Z,84.0
2017-11-22T16:37:03.253Z,83.8
2017-11-22T16:42:03.502Z,83.4
2017-11-22T16:47:03.873Z,82.9
2017-11-22T16:52:03.261Z,82.9
2017-11-22T16:57:03.528Z,82.6
2017-11-22T17:02:03.857Z,82.4
2017-11-22T17:07:03.383Z,81.8
2017-11-22T17:12:03.848Z,81.6
2017-11-22T17:17:03.298Z,81.0
2017-11-22T17:22:03.563Z,81.2
2017-11-22T17:27:03.858Z,81.4
2017-11-22T17:32:03.261Z,81.1
2017-11-22T17:37:03.502Z,80.7
2017-11-22T17:42:03.637Z,80.2
2017-11-22T17:47:03.200Z,80.0
2017-11-22T17:52:03.495Z,79.9
2017-11-22T17:57:03.689Z,79.5
2017-11-22T18:02:03.267Z,80.1
2017-11-22T18:07:03.471Z,79.2
2017-11-22T18:12:03.961Z,79.2
2017-11-22T18:17:03.461Z,79.2
2017-11-22T18:22:03.676Z,78.7
2017-11-22T18:27:03.966Z,78.7
2017-11-22T18:32:03.322Z,78.4
2017-11-22T18:37:03.690Z,78.3
2017-11-22T18:42:03.959Z,78.1
2017-11-22T18:47:03.377Z,78.0
2017-11-22T18:52:03.670Z,77.5
2017-11-22T18:57:03.885Z,77.5
2017-11-22T19:02:03.385Z,77.9
2017-11-22T19:07:03.618Z,77.7
2017-11-22T19:12:03.156Z,77.6
2017-11-22T19:17:03.566Z,77.4
2017-11-22T19:22:03.786Z,77.3
2017-11-22T19:27:03.167Z,77.2
2017-11-22T19:32:03.539Z,77.1
2017-11-22T19:37:03.804Z,76.9
2017-11-22T19:42:03.137Z,76.7
2017-11-22T19:47:03.416Z,76.6
2017-11-22T19:52:03.671Z,76.6
2017-11-22T19:57:04.030Z,76.6
2017-11-22T20:02:03.313Z,76.3
2017-11-22T20:07:03.690Z,76.4
2017-11-22T20:12:03.214Z,76.4
2017-11-22T20:17:03.477Z,76.4
2017-11-22T20:22:03.845Z,76.3
2017-11-22T20:27:03.252Z,75.9
2017-11-22T20:32:03.520Z,76.1
2017-11-22T20:37:03.809Z,76.1
2017-11-22T20:42:03.128Z,76.0
2017-11-22T20:47:03.404Z,75.9
2017-11-22T20:52:03.711Z,76.0
2017-11-22T20:57:03.039Z,75.9
2017-11-22T21:02:03.467Z,75.6
2017-11-22T21:07:03.823Z,75.6
2017-11-22T21:12:03.303Z,75.7
2017-11-22T21:17:03.607Z,75.6
2017-11-22T21:22:04.018Z,75.3
2017-11-22T21:27:03.363Z,75.1
2017-11-22T21:32:03.664Z,75.1
2017-11-22T21:37:04.005Z,74.9
2017-11-22T21:42:03.398Z,74.8
2017-11-22T21:47:05.650Z,74.7
2017-11-22T21:52:04.378Z,74.9
2017-11-22T21:57:03.205Z,74.7
2017-11-22T22:02:07.246Z,74.7
2017-11-22T22:07:04.395Z,74.7
2017-11-22T22:12:03.409Z,74.6
2017-11-22T22:17:03.681Z,74.5
2017-11-22T22:22:03.070Z,74.4
2017-11-22T22:27:03.449Z,74.4
2017-11-22T22:32:03.671Z,74.4
2017-11-22T22:37:04.002Z,74.2
2017-11-22T22:42:03.314Z,74.3
2017-11-22T22:47:03.691Z,74.2
2017-11-22T22:52:03.887Z,74.2
2017-11-22T22:57:03.223Z,74.2
2017-11-22T23:02:03.717Z,74.4
2017-11-22T23:07:03.352Z,74.2
2017-11-22T23:12:03.857Z,74.5
2017-11-22T23:22:03.715Z,74.2
2017-11-22T23:27:03.353Z,74.4
2017-11-22T23:32:03.429Z,74.0
2017-11-22T23:37:03.877Z,74.1
2017-11-22T23:42:03.846Z,74.1
2017-11-22T23:47:03.887Z,74.2
2017-11-22T23:52:03.673Z,74.2
2017-11-22T23:57:03.727Z,74.2
